Time;durP1;ratioP1;P1;durP2;ratioP2;P2;SDS_P1;SDS_P2;PMS_P1;PMS_P2;Temp;Humidity;BMP_temperature;BMP_pressure;BME280_temperature;BME280_humidity;BME280_pressure;Samples;Min_cycle;Max_cycle;Signal;HPM_P1;HPM_P2
2022/12/02 00:01:26;;;;;;;6.80;5.50;;;;;;;19.44;28.63;101418.26;105133;1285;82016;31
2022/12/02 00:03:51;;;;;;;6.80;5.30;;;;;;;19.45;28.64;101419.69;104651;1293;72382;-92
2022/12/02 00:06:30;;;;;;;6.80;5.60;;;;;;;19.45;28.53;101423.59;105174;1294;69160;-91
2022/12/02 00:09:21;;;;;;;7.60;5.60;;;;;;;19.46;28.54;101420.78;105032;1293;68367;-91
2022/12/02 00:11:47;;;;;;;7.00;5.30;;;;;;;19.46;28.61;101431.82;105265;1281;74421;-92
2022/12/02 00:14:25;;;;;;;8.00;5.40;;;;;;;19.47;28.58;101429.95;105170;1285;68339;-91
2022/12/02 00:16:51;;;;;;;8.70;5.50;;;;;;;19.47;28.54;101430.16;105039;1291;72495;-92
2022/12/02 00:19:23;;;;;;;8.70;5.60;;;;;;;19.47;28.53;101431.29;104779;1291;69192;31
2022/12/02 00:21:49;;;;;;;6.30;5.00;;;;;;;19.48;28.53;101429.11;104499;1295;69080;-90
2022/12/02 00:24:15;;;;;;;6.50;5.20;;;;;;;19.48;28.40;101426.20;104905;1288;66934;-92
2022/12/02 00:26:41;;;;;;;6.30;5.20;;;;;;;19.48;28.46;101429.16;105314;1292;68306;-90
2022/12/02 00:29:06;;;;;;;9.00;5.50;;;;;;;19.49;28.49;101426.48;105468;1288;69167;-90
2022/12/02 00:31:32;;;;;;;6.20;5.10;;;;;;;19.49;28.66;101429.19;105013;1289;69163;-93
2022/12/02 00:33:59;;;;;;;6.30;5.10;;;;;;;19.49;28.47;101428.02;105202;1289;68612;-93
2022/12/02 00:36:26;;;;;;;6.50;4.90;;;;;;;19.51;28.41;101432.53;105263;1279;82079;-91
2022/12/02 00:38:52;;;;;;;5.70;4.70;;;;;;;19.51;28.39;101432.02;104828;1294;73420;-92
2022/12/02 00:41:17;;;;;;;6.90;5.00;;;;;;;19.51;28.39;101432.18;105071;1284;70465;-90
2022/12/02 00:46:32;;;;;;;6.60;5.10;;;;;;;19.52;28.40;101434.45;105349;1276;74477;-90
2022/12/02 00:51:31;;;;;;;5.60;4.60;;;;;;;19.53;28.42;101433.23;105211;1288;72130;-92
2022/12/02 00:53:56;;;;;;;5.90;4.70;;;;;;;19.53;28.39;101434.27;105113;1286;69144;-91
2022/12/02 00:56:22;;;;;;;6.10;4.80;;;;;;;19.53;28.32;101435.85;104866;1294;69175;-92
2022/12/02 00:58:52;;;;;;;6.20;4.80;;;;;;;19.53;28.39;101433.77;105167;1285;69301;-90
2022/12/02 01:01:22;;;;;;;7.50;5.00;;;;;;;19.54;28.34;101431.17;105066;1275;82255;-90
2022/12/02 01:03:47;;;;;;;5.70;4.50;;;;;;;19.54;28.27;101422.17;104997;1288;72700;-90
2022/12/02 01:06:13;;;;;;;6.50;4.70;;;;;;;19.54;28.48;101416.72;105183;1294;69234;-92
2022/12/02 01:08:38;;;;;;;5.60;4.60;;;;;;;19.55;28.37;101414.20;105015;1288;69284;-92
2022/12/02 01:11:04;;;;;;;5.60;4.70;;;;;;;19.56;28.30;101411.20;104929;1287;69148;-91
2022/12/02 01:13:34;;;;;;;7.00;5.10;;;;;;;19.56;28.39;101410.02;105123;1288;69260;-91
2022/12/02 01:18:25;;;;;;;5.60;4.60;;;;;;;19.57;28.37;101411.46;105388;1281;69209;-92
2022/12/02 01:20:50;;;;;;;5.40;4.70;;;;;;;19.58;28.32;101415.11;105400;1289;69166;-92
2022/12/02 01:23:16;;;;;;;6.90;5.00;;;;;;;19.58;28.38;101412.86;105302;1287;69222;-92
2022/12/02 01:25:41;;;;;;;5.70;4.60;;;;;;;19.58;28.34;101416.23;105523;1287;69110;-92
2022/12/02 01:28:17;;;;;;;5.70;4.50;;;;;;;19.58;28.37;101414.21;104791;1288;69095;31
2022/12/02 01:30:42;;;;;;;5.70;4.50;;;;;;;19.58;28.28;101411.30;104824;1293;74404;-92
2022/12/02 01:33:08;;;;;;;5.70;4.50;;;;;;;19.59;28.34;101422.35;104847;1287;69134;-91
2022/12/02 01:35:33;;;;;;;5.30;4.20;;;;;;;19.59;28.34;101424.74;104888;1289;69118;-91
2022/12/02 01:37:59;;;;;;;5.60;4.50;;;;;;;19.60;28.37;101423.98;104995;1291;69198;-92
2022/12/02 01:40:25;;;;;;;5.10;4.60;;;;;;;19.60;28.26;101418.07;105198;1289;69634;-91
2022/12/02 01:43:00;;;;;;;5.60;4.60;;;;;;;19.60;28.32;101423.34;104684;1287;82100;-91
2022/12/02 01:45:25;;;;;;;6.20;4.80;;;;;;;19.61;28.24;101423.96;104726;1287;72264;-92
2022/12/02 01:47:51;;;;;;;5.90;5.10;;;;;;;19.61;28.23;101426.57;105077;1295;69180;-92
2022/12/02 01:50:17;;;;;;;6.60;4.40;;;;;;;19.61;28.24;101425.45;105024;1287;69159;-90
2022/12/02 01:52:42;;;;;;;5.60;4.70;;;;;;;19.62;28.23;101422.14;105167;1288;69147;-90
2022/12/02 01:55:16;;;;;;;5.30;4.20;;;;;;;19.62;28.28;101426.30;105273;1293;69215;-90
2022/12/02 01:57:41;;;;;;;6.90;5.00;;;;;;;19.62;28.22;101426.13;104908;1295;69257;-92
2022/12/02 02:00:07;;;;;;;5.40;4.20;;;;;;;19.62;28.24;101421.64;105038;1292;69136;-92
2022/12/02 02:02:35;;;;;;;5.40;4.30;;;;;;;19.62;28.22;101421.33;105021;1290;69297;-90
2022/12/02 02:05:20;;;;;;;5.40;4.60;;;;;;;19.62;28.21;101421.39;104780;1290;69141;-92
2022/12/02 02:07:48;;;;;;;5.40;4.40;;;;;;;19.63;28.21;101420.63;105244;1285;73592;-92
2022/12/02 02:10:13;;;;;;;5.20;4.40;;;;;;;19.63;28.18;101418.07;104831;1278;69098;-90
2022/12/02 02:15:13;;;;;;;7.30;4.50;;;;;;;19.63;28.28;101418.04;105318;1282;73974;-92
2022/12/02 02:17:38;;;;;;;6.40;4.70;;;;;;;19.63;28.08;101415.79;105251;1277;67229;-91
2022/12/02 02:20:06;;;;;;;5.50;4.60;;;;;;;19.65;28.13;101413.20;105213;1278;69256;-91
2022/12/02 02:22:37;;;;;;;8.90;4.70;;;;;;;19.65;28.05;101417.77;105196;1288;69165;-90
2022/12/02 02:25:12;;;;;;;6.10;4.60;;;;;;;19.64;28.10;101406.58;105215;1292;69251;-92
2022/12/02 02:30:26;;;;;;;5.60;4.30;;;;;;;19.65;28.13;101410.16;104462;1287;277257;-91
2022/12/02 02:32:52;;;;;;;5.00;4.20;;;;;;;19.66;27.99;101409.88;104924;1287;72315;-92
2022/12/02 02:35:17;;;;;;;6.60;4.90;;;;;;;19.66;28.16;101410.43;104895;1293;69236;-92
2022/12/02 02:37:43;;;;;;;4.50;4.00;;;;;;;19.67;28.01;101410.86;105090;1291;69125;-92
2022/12/02 02:40:15;;;;;;;5.20;4.20;;;;;;;19.67;28.17;101407.49;104985;1290;69273;-92
2022/12/02 02:45:10;;;;;;;6.10;4.80;;;;;;;19.67;28.04;101411.23;104897;1291;68464;-92
2022/12/02 02:47:39;;;;;;;5.90;4.80;;;;;;;19.68;28.06;101411.77;105055;1292;69138;-89
2022/12/02 02:50:05;;;;;;;5.40;4.30;;;;;;;19.68;28.12;101414.67;105036;1284;69150;-90
2022/12/02 02:52:31;;;;;;;6.60;4.50;;;;;;;19.68;28.02;101412.48;105225;1288;69176;-89
2022/12/02 02:55:00;;;;;;;5.90;4.50;;;;;;;19.69;28.06;101414.23;104735;1291;69148;-92
2022/12/02 02:57:26;;;;;;;5.40;4.30;;;;;;;19.70;28.04;101412.91;104723;1287;72403;-91
2022/12/02 02:59:52;;;;;;;5.90;4.40;;;;;;;19.69;28.00;101413.91;105015;1287;69137;-91
2022/12/02 03:02:18;;;;;;;5.50;4.60;;;;;;;19.70;27.88;101413.79;104966;1285;69230;-89
2022/12/02 03:04:43;;;;;;;5.40;4.60;;;;;;;19.72;27.97;101416.83;105055;1285;66546;-92
2022/12/02 03:07:09;;;;;;;5.30;4.50;;;;;;;19.72;27.88;101415.92;105290;1286;69086;-91
2022/12/02 03:12:00;;;;;;;5.50;4.60;;;;;;;19.73;27.92;101419.61;105544;1283;69136;-91
2022/12/02 03:14:26;;;;;;;6.20;4.90;;;;;;;19.73;28.00;101412.36;105223;1285;69150;-92
2022/12/02 03:16:51;;;;;;;5.30;4.60;;;;;;;19.73;27.92;101419.26;105158;1287;69198;-92
2022/12/02 03:19:17;;;;;;;5.70;4.20;;;;;;;19.73;27.79;101421.66;104948;1294;69133;-91
2022/12/02 03:21:46;;;;;;;5.50;4.60;;;;;;;19.73;27.98;101419.41;104666;1287;66857;-90
2022/12/02 03:24:12;;;;;;;6.40;4.50;;;;;;;19.73;27.77;101419.83;104947;1287;75239;-91
2022/12/02 03:26:37;;;;;;;4.80;4.30;;;;;;;19.73;27.84;101416.61;105068;1288;69192;-92
2022/12/02 03:29:03;;;;;;;5.00;4.50;;;;;;;19.74;27.88;101420.50;105106;1292;69236;-90
2022/12/02 03:31:28;;;;;;;4.80;4.30;;;;;;;19.73;27.76;101417.94;105251;1288;69238;-92
2022/12/02 03:33:54;;;;;;;5.40;4.50;;;;;;;19.74;27.74;101422.50;104994;1295;69170;-92
2022/12/02 03:36:20;;;;;;;5.50;4.50;;;;;;;19.74;27.80;101425.77;104974;1288;82237;-92
2022/12/02 03:38:45;;;;;;;5.80;4.50;;;;;;;19.74;27.73;101426.16;104758;1283;69218;-92
2022/12/02 03:41:11;;;;;;;5.60;4.30;;;;;;;19.74;27.74;101430.66;104846;1291;67895;-92
2022/12/02 03:43:36;;;;;;;6.00;4.60;;;;;;;19.75;27.77;101429.20;104891;1292;69205;-91
2022/12/02 03:46:02;;;;;;;5.80;4.70;;;;;;;19.75;27.76;101434.15;104660;1292;69206;-92
2022/12/02 03:48:28;;;;;;;6.10;4.70;;;;;;;19.75;27.88;101433.34;104450;1298;71439;-91
2022/12/02 03:50:53;;;;;;;5.20;4.20;;;;;;;19.75;27.77;101436.45;104848;1283;69281;-91
2022/12/02 03:53:19;;;;;;;6.40;4.50;;;;;;;19.76;27.79;101436.91;104876;1293;69228;-91
2022/12/02 03:55:45;;;;;;;5.20;4.50;;;;;;;19.75;27.75;101435.73;104677;1292;69105;-91
2022/12/02 03:58:10;;;;;;;7.00;4.90;;;;;;;19.76;27.74;101438.03;104634;1287;69320;-91
2022/12/02 04:00:36;;;;;;;5.70;4.60;;;;;;;19.75;27.76;101441.60;104667;1288;69195;-91
2022/12/02 04:03:02;;;;;;;6.60;4.20;;;;;;;19.76;27.74;101443.96;104841;1295;69166;-90
2022/12/02 04:05:27;;;;;;;5.30;4.00;;;;;;;19.76;27.72;101444.09;105108;1287;69171;-91
2022/12/02 04:07:53;;;;;;;6.60;4.40;;;;;;;19.76;27.82;101445.30;105133;1292;69262;-91
2022/12/02 04:10:18;;;;;;;5.00;4.20;;;;;;;19.77;27.78;101449.05;105132;1285;69205;-90
2022/12/02 04:12:44;;;;;;;5.60;4.40;;;;;;;19.77;27.74;101445.90;105015;1292;69247;-90
2022/12/02 04:15:09;;;;;;;6.20;4.40;;;;;;;19.78;27.71;101449.17;104636;1291;69347;-90
2022/12/02 04:17:35;;;;;;;5.90;4.50;;;;;;;19.78;27.77;101448.60;105347;1288;69717;-90
2022/12/02 04:20:01;;;;;;;4.80;4.20;;;;;;;19.78;27.73;101449.94;104975;1281;69121;-90
2022/12/02 04:22:35;;;;;;;5.70;4.60;;;;;;;19.78;27.77;101447.39;104880;1286;69167;-92
2022/12/02 04:25:03;;;;;;;6.50;4.50;;;;;;;19.78;27.67;101448.98;105136;1271;74607;-90
2022/12/02 04:27:33;;;;;;;5.30;4.40;;;;;;;19.78;27.77;101450.60;105044;1276;81916;-89
2022/12/02 04:29:58;;;;;;;6.40;4.40;;;;;;;19.78;27.80;101450.83;104995;1287;72308;-90
2022/12/02 04:32:24;;;;;;;6.30;4.60;;;;;;;19.79;27.74;101452.00;105141;1295;67781;-90
2022/12/02 04:34:54;;;;;;;5.80;4.40;;;;;;;19.79;27.68;101448.73;105319;1282;69231;-90
2022/12/02 04:37:19;;;;;;;5.40;4.50;;;;;;;19.79;27.91;101451.19;105532;1286;75422;-90
2022/12/02 04:39:45;;;;;;;6.30;4.60;;;;;;;19.79;27.74;101447.25;105192;1285;69207;-90
2022/12/02 04:44:49;;;;;;;5.40;4.20;;;;;;;19.80;27.83;101452.02;104819;1285;69137;-92
2022/12/02 04:47:15;;;;;;;5.20;4.60;;;;;;;19.80;27.81;101450.17;104889;1288;69387;-92
2022/12/02 04:49:40;;;;;;;5.70;4.50;;;;;;;19.80;27.74;101455.77;105075;1293;69252;-92
2022/12/02 04:52:06;;;;;;;5.20;4.40;;;;;;;19.81;27.72;101456.14;104784;1288;69100;-91
2022/12/02 04:54:31;;;;;;;6.00;4.50;;;;;;;19.82;27.81;101461.65;105010;1291;69185;-89
2022/12/02 04:56:57;;;;;;;6.10;4.80;;;;;;;19.82;27.83;101462.13;104942;1287;69022;-91
2022/12/02 04:59:22;;;;;;;5.80;4.40;;;;;;;19.82;27.80;101464.02;105291;1294;66764;-91
2022/12/02 05:01:48;;;;;;;5.20;4.40;;;;;;;19.83;27.67;101470.16;105174;1287;69070;-91
2022/12/02 05:04:18;;;;;;;5.20;4.40;;;;;;;19.83;27.77;101470.89;105060;1292;69063;-92
2022/12/02 05:06:43;;;;;;;5.30;4.40;;;;;;;19.84;27.67;101470.70;105333;1285;69126;-90
2022/12/02 05:14:44;;;;;;;6.20;4.70;;;;;;;19.84;27.79;101472.14;104918;1287;72318;-91
2022/12/02 05:17:10;;;;;;;6.10;4.80;;;;;;;19.85;27.84;101472.41;105190;1288;69291;-92
2022/12/02 05:19:35;;;;;;;6.70;5.10;;;;;;;19.85;27.73;101474.34;105164;1291;69185;-92
2022/12/02 05:22:01;;;;;;;5.90;4.80;;;;;;;19.85;27.72;101474.23;105034;1291;69096;-90
2022/12/02 05:24:34;;;;;;;6.00;4.70;;;;;;;19.86;27.70;101473.64;105097;1286;69291;-89
2022/12/02 05:29:39;;;;;;;6.50;4.90;;;;;;;19.86;27.79;101474.11;104921;1287;69190;-90
2022/12/02 05:32:05;;;;;;;5.70;4.40;;;;;;;19.86;27.73;101472.28;104985;1279;69142;-92
2022/12/02 05:34:31;;;;;;;6.10;4.80;;;;;;;19.87;27.68;101475.30;104789;1284;69165;-91
2022/12/02 05:36:56;;;;;;;6.60;4.60;;;;;;;19.86;27.83;101475.64;105238;1287;69244;-92
2022/12/02 05:39:26;;;;;;;6.40;5.20;;;;;;;19.87;27.66;101478.26;106002;1282;69194;-91
2022/12/02 05:41:53;;;;;;;6.50;5.10;;;;;;;19.87;27.72;101477.45;104835;1287;74508;-90
2022/12/02 05:44:24;;;;;;;6.40;5.50;;;;;;;19.87;27.73;101479.61;104872;1279;80906;-90
2022/12/02 05:46:59;;;;;;;7.60;5.10;;;;;;;19.88;27.69;101477.02;105004;1287;72572;-90
2022/12/02 05:49:29;;;;;;;7.00;5.30;;;;;;;19.87;27.80;101477.36;105211;1288;68961;-92
2022/12/02 05:51:56;;;;;;;6.60;5.10;;;;;;;19.87;27.78;101479.11;105017;1287;67831;-92
2022/12/02 05:54:22;;;;;;;5.60;4.90;;;;;;;19.88;27.74;101479.83;104722;1288;74381;-89
2022/12/02 05:56:48;;;;;;;6.60;5.40;;;;;;;19.88;27.63;101483.51;104515;1288;69301;-92
2022/12/02 05:59:18;;;;;;;6.80;5.40;;;;;;;19.88;27.64;101485.66;105821;1279;69637;-91
2022/12/02 06:01:47;;;;;;;7.90;5.70;;;;;;;19.89;27.80;101487.42;106265;1286;66693;-92
2022/12/02 06:04:23;;;;;;;6.70;5.00;;;;;;;19.89;27.76;101488.85;105555;1279;68226;-92
2022/12/02 06:06:51;;;;;;;7.00;5.30;;;;;;;19.89;27.77;101489.64;106004;1284;74444;-92
2022/12/02 06:09:23;;;;;;;7.60;5.10;;;;;;;19.90;27.79;101494.99;107007;1278;82147;-89
2022/12/02 06:14:32;;;;;;;7.70;5.60;;;;;;;19.91;27.72;101503.66;106923;1294;66506;-92
2022/12/02 06:16:59;;;;;;;8.20;5.80;;;;;;;19.91;27.80;101500.08;105670;1280;69120;-91
2022/12/02 06:19:46;;;;;;;7.80;5.10;;;;;;;19.92;27.73;101501.45;105925;1278;74464;-90
2022/12/02 06:22:19;;;;;;;7.30;5.30;;;;;;;19.93;27.72;101500.59;105526;1288;82020;-91
2022/12/02 06:24:48;;;;;;;6.40;5.20;;;;;;;19.94;27.99;101502.95;105569;1294;72379;-91
2022/12/02 06:27:21;;;;;;;7.00;5.30;;;;;;;19.95;27.72;101502.10;105418;1285;69098;-89
2022/12/02 06:32:37;;;;;;;8.70;5.90;;;;;;;19.95;27.76;101500.84;107012;1279;74338;-91
2022/12/02 06:35:04;;;;;;;7.80;6.00;;;;;;;19.96;27.73;101504.00;106108;1294;80973;-92
2022/12/02 06:37:33;;;;;;;7.40;5.80;;;;;;;19.96;27.84;101501.42;105915;1291;73447;-91
2022/12/02 06:39:59;;;;;;;7.80;6.00;;;;;;;19.96;27.72;101501.67;106921;1285;66394;-91
2022/12/02 06:42:31;;;;;;;7.70;5.90;;;;;;;19.98;27.85;101501.24;106854;1291;67277;-89
2022/12/02 06:45:27;;;;;;;8.10;5.90;;;;;;;19.97;27.77;101504.31;106686;1291;74529;31
2022/12/02 06:48:21;;;;;;;7.50;5.80;;;;;;;19.97;27.80;101502.16;105187;1275;82142;31
2022/12/02 06:53:37;;;;;;;7.20;5.80;;;;;;;19.97;27.81;101504.56;105087;1293;69037;-90
2022/12/02 06:56:05;;;;;;;7.80;6.30;;;;;;;19.98;27.70;101507.17;105291;1287;68153;-93
2022/12/02 06:58:38;;;;;;;8.50;6.10;;;;;;;19.98;27.60;101512.80;105447;1286;73498;-92
2022/12/02 07:01:09;;;;;;;8.90;6.20;;;;;;;19.98;27.77;101514.89;105325;1285;81783;-90
2022/12/02 07:03:55;;;;;;;7.90;5.80;;;;;;;19.98;27.60;101521.23;105497;1288;72565;-91
2022/12/02 07:06:28;;;;;;;8.60;6.10;;;;;;;19.97;27.63;101525.04;105433;1292;69096;-92
2022/12/02 07:09:08;;;;;;;8.30;6.30;;;;;;;19.97;27.87;101524.79;104938;1292;69090;31
2022/12/02 07:14:39;;;;;;;8.10;6.40;;;;;;;19.96;27.69;101532.53;105537;1289;82085;-93
2022/12/02 07:17:30;;;;;;;8.40;6.60;;;;;;;19.97;27.85;101539.59;104800;1291;72598;-91
2022/12/02 07:19:57;;;;;;;7.40;5.70;;;;;;;19.96;27.85;101538.51;105361;1285;67009;-92
2022/12/02 07:22:28;;;;;;;7.80;6.40;;;;;;;19.96;27.65;101543.47;105301;1285;69099;-92
2022/12/02 07:27:46;;;;;;;12.60;7.30;;;;;;;19.96;27.86;101552.08;106700;1275;82043;-92
2022/12/02 07:30:24;;;;;;;9.30;6.80;;;;;;;19.95;27.87;101557.55;106887;1271;72330;-90
2022/12/02 07:32:52;;;;;;;9.70;7.00;;;;;;;19.96;27.86;101559.55;106404;1286;69142;-90
2022/12/02 07:35:18;;;;;;;9.20;6.60;;;;;;;19.96;27.70;101563.06;105085;1291;69212;-92
2022/12/02 07:37:43;;;;;;;9.10;7.10;;;;;;;19.97;27.77;101564.06;105332;1291;69199;-92
2022/12/02 07:40:09;;;;;;;9.10;6.90;;;;;;;19.98;27.83;101564.02;105157;1291;69186;-92
2022/12/02 07:42:35;;;;;;;9.60;6.80;;;;;;;19.98;27.79;101563.67;105155;1287;69189;-92
2022/12/02 07:45:05;;;;;;;9.40;7.00;;;;;;;19.98;27.78;101564.13;105471;1283;69003;-90
2022/12/02 07:50:12;;;;;;;10.50;7.20;;;;;;;19.99;27.62;101562.93;105046;1289;82111;-92
2022/12/02 07:52:38;;;;;;;8.00;6.50;;;;;;;19.98;27.77;101560.52;105334;1288;72263;-92
2022/12/02 07:55:03;;;;;;;9.30;6.90;;;;;;;19.99;27.74;101563.23;105391;1289;69127;-91
2022/12/02 07:57:29;;;;;;;9.90;6.90;;;;;;;19.98;27.81;101557.55;105207;1291;69281;-91
2022/12/02 07:59:54;;;;;;;9.30;7.20;;;;;;;19.98;27.60;101562.46;105387;1292;69112;-91
2022/12/02 08:02:20;;;;;;;10.60;7.50;;;;;;;19.98;27.61;101561.84;104985;1288;69268;-92
2022/12/02 08:04:46;;;;;;;10.50;7.40;;;;;;;19.98;27.73;101561.02;105588;1287;69150;-92
2022/12/02 08:07:11;;;;;;;10.40;7.10;;;;;;;19.98;27.79;101558.46;105544;1279;69215;-92
2022/12/02 08:09:41;;;;;;;9.70;7.50;;;;;;;19.97;27.75;101560.80;105456;1279;66788;-91
2022/12/02 08:12:10;;;;;;;9.40;7.00;;;;;;;19.98;27.66;101561.27;105527;1279;83055;-91
2022/12/02 08:14:40;;;;;;;10.90;7.50;;;;;;;19.97;27.70;101561.31;105288;1276;72510;31
2022/12/02 08:17:05;;;;;;;10.30;7.60;;;;;;;19.97;27.74;101564.92;105191;1294;69324;-92
2022/12/02 08:19:31;;;;;;;9.00;6.90;;;;;;;19.96;27.75;101561.60;105341;1285;66734;-92
2022/12/02 08:21:56;;;;;;;10.10;7.30;;;;;;;19.96;27.70;101564.66;105062;1285;69337;-92
2022/12/02 08:24:22;;;;;;;10.90;7.60;;;;;;;19.95;27.66;101561.33;105125;1288;69190;-92
2022/12/02 08:27:07;;;;;;;10.20;7.10;;;;;;;19.95;27.67;101560.61;105276;1268;66488;-91
2022/12/02 08:29:52;;;;;;;10.10;7.30;;;;;;;19.94;27.75;101557.68;105417;1280;67808;31
2022/12/02 08:35:01;;;;;;;9.30;7.40;;;;;;;19.93;27.86;101551.63;105236;1291;83045;-91
2022/12/02 08:37:26;;;;;;;10.00;7.40;;;;;;;19.94;27.86;101556.19;105400;1289;69079;-91
2022/12/02 08:39:52;;;;;;;10.50;7.70;;;;;;;19.94;27.68;101557.05;105472;1288;69147;-90
2022/12/02 08:42:17;;;;;;;11.10;7.70;;;;;;;19.93;27.73;101547.48;105309;1291;69203;-91
2022/12/02 08:44:51;;;;;;;11.10;8.20;;;;;;;19.93;27.82;101548.09;105564;1289;69157;-90
2022/12/02 08:49:47;;;;;;;10.30;7.70;;;;;;;19.93;27.77;101553.72;105814;1285;68296;-90
2022/12/02 08:52:13;;;;;;;10.20;7.70;;;;;;;19.93;27.89;101551.82;105358;1294;68018;-93
2022/12/02 08:54:39;;;;;;;12.10;7.90;;;;;;;19.93;27.77;101548.30;105425;1294;67779;-92
2022/12/02 08:57:05;;;;;;;11.00;8.30;;;;;;;19.93;27.86;101549.31;105664;1287;69112;-91
2022/12/02 08:59:35;;;;;;;9.70;7.20;;;;;;;19.93;27.88;101548.20;105367;1293;69100;-90
2022/12/02 09:02:01;;;;;;;10.70;7.90;;;;;;;19.93;27.77;101547.30;105283;1293;69365;-93
2022/12/02 09:04:26;;;;;;;11.40;8.50;;;;;;;19.93;27.77;101552.20;105333;1288;69176;-91
2022/12/02 09:06:59;;;;;;;10.90;7.50;;;;;;;19.94;27.96;101549.44;105521;1292;68283;-91
2022/12/02 09:09:25;;;;;;;11.50;8.10;;;;;;;19.94;27.85;101548.88;105382;1291;82204;-92
2022/12/02 09:11:50;;;;;;;10.70;7.80;;;;;;;19.94;27.91;101546.73;105283;1291;69128;-90
2022/12/02 09:16:52;;;;;;;11.00;8.30;;;;;;;19.93;27.74;101541.52;105360;1285;67008;-91
2022/12/02 09:19:18;;;;;;;10.70;8.10;;;;;;;19.94;27.88;101544.64;105335;1287;69118;-91
2022/12/02 09:21:44;;;;;;;12.00;7.80;;;;;;;19.93;27.69;101546.58;105524;1279;69172;-92
2022/12/02 09:24:09;;;;;;;11.80;8.20;;;;;;;19.93;27.82;101535.98;105385;1279;69217;-92
2022/12/02 09:26:35;;;;;;;11.40;8.50;;;;;;;19.94;27.75;101532.27;105428;1290;69188;-92
2022/12/02 09:29:00;;;;;;;10.80;7.60;;;;;;;19.94;27.80;101530.15;105093;1283;69217;-92
2022/12/02 09:31:26;;;;;;;11.70;7.70;;;;;;;19.95;27.77;101524.43;105540;1285;69263;-92
2022/12/02 09:33:51;;;;;;;10.30;8.20;;;;;;;19.95;27.76;101522.56;105378;1291;68246;-91
2022/12/02 09:36:17;;;;;;;10.30;7.70;;;;;;;19.96;27.90;101519.49;105473;1288;69271;-92
2022/12/02 09:38:47;;;;;;;11.10;7.50;;;;;;;19.96;27.76;101522.52;105514;1282;67902;-93
2022/12/02 09:41:32;;;;;;;10.00;7.60;;;;;;;19.96;27.76;101521.56;105746;1281;82053;31
2022/12/02 09:43:57;;;;;;;10.80;7.90;;;;;;;19.96;27.75;101517.16;105086;1291;72616;-91
2022/12/02 09:46:42;;;;;;;11.50;7.70;;;;;;;19.96;27.82;101512.16;105381;1288;68351;-90
2022/12/02 09:49:08;;;;;;;10.80;7.60;;;;;;;19.96;27.83;101514.30;105623;1291;66440;-92
2022/12/02 09:51:33;;;;;;;13.30;8.10;;;;;;;19.98;27.80;101513.20;105276;1288;69138;-92
2022/12/02 09:53:59;;;;;;;11.90;7.90;;;;;;;19.97;27.74;101514.73;105364;1278;69268;-92
2022/12/02 09:56:24;;;;;;;11.40;8.00;;;;;;;19.99;27.83;101520.02;105338;1291;69167;-92
2022/12/02 09:58:52;;;;;;;10.60;7.70;;;;;;;20.00;27.83;101520.09;104948;1288;69198;-91
2022/12/02 10:01:18;;;;;;;9.70;7.30;;;;;;;20.00;27.86;101520.55;105507;1294;74446;-93
2022/12/02 10:03:43;;;;;;;10.50;7.80;;;;;;;20.01;27.79;101522.04;105298;1293;69227;-93
2022/12/02 10:06:17;;;;;;;11.00;7.90;;;;;;;20.02;27.72;101523.84;105193;1289;69274;-92
2022/12/02 10:08:43;;;;;;;10.90;8.20;;;;;;;20.01;27.80;101522.27;105386;1289;69153;-92
2022/12/02 10:11:23;;;;;;;10.30;7.20;;;;;;;20.02;27.80;101524.16;105302;1291;69145;31
2022/12/02 10:13:49;;;;;;;9.90;7.40;;;;;;;20.02;27.82;101521.57;104745;1282;74443;-92
2022/12/02 10:16:27;;;;;;;11.60;7.50;;;;;;;20.02;27.81;101521.10;105442;1286;69173;-92
2022/12/02 10:18:59;;;;;;;10.60;7.40;;;;;;;20.03;27.66;101524.58;105141;1282;72606;-92
2022/12/02 10:21:29;;;;;;;10.60;7.40;;;;;;;20.03;27.75;101525.06;105199;1288;68090;-92
2022/12/02 10:24:02;;;;;;;10.00;8.00;;;;;;;20.04;27.71;101520.68;105362;1288;69181;-91
2022/12/02 10:26:47;;;;;;;10.70;7.30;;;;;;;20.04;27.73;101520.98;105074;1290;74561;-91
2022/12/02 10:29:28;;;;;;;10.80;7.30;;;;;;;20.04;27.74;101521.71;105259;1288;82178;-90
2022/12/02 10:34:35;;;;;;;10.80;7.60;;;;;;;20.05;27.75;101514.68;105186;1288;69137;-92
2022/12/02 10:37:24;;;;;;;10.00;7.60;;;;;;;20.06;27.80;101513.92;105336;1278;69196;-90
2022/12/02 10:40:12;;;;;;;11.20;7.40;;;;;;;20.06;27.73;101514.49;105503;1294;74438;-92
2022/12/02 10:42:37;;;;;;;9.40;7.10;;;;;;;20.06;27.87;101510.77;105579;1286;82136;-91
2022/12/02 10:45:17;;;;;;;9.40;7.20;;;;;;;20.07;27.77;101504.55;105612;1281;69262;-90
2022/12/02 10:47:43;;;;;;;12.60;7.80;;;;;;;20.08;27.85;101500.33;105297;1286;69084;-90
2022/12/02 10:50:19;;;;;;;9.00;7.00;;;;;;;20.08;27.69;101501.35;105352;1292;68978;-89
2022/12/02 10:55:21;;;;;;;10.80;7.70;;;;;;;20.10;27.78;101496.80;105504;1292;80033;-93
2022/12/02 10:57:47;;;;;;;10.70;7.40;;;;;;;20.09;27.67;101500.56;105401;1292;69081;-90
2022/12/02 11:00:23;;;;;;;10.60;7.60;;;;;;;20.10;27.88;101500.63;105316;1282;69131;-92
2022/12/02 11:02:51;;;;;;;9.30;6.70;;;;;;;20.11;27.56;101496.70;105225;1294;69114;-91
2022/12/02 11:05:26;;;;;;;9.50;7.00;;;;;;;20.12;27.89;101498.05;105466;1290;74462;-92
2022/12/02 11:13:29;;;;;;;11.20;7.00;;;;;;;20.13;27.62;101498.48;104838;1297;69162;-92
2022/12/02 11:16:28;;;;;;;9.60;7.10;;;;;;;20.13;27.69;101504.47;105401;1280;68295;-92
2022/12/02 11:19:01;;;;;;;12.20;7.20;;;;;;;20.14;27.73;101503.97;105604;1268;74766;-91
2022/12/02 11:21:27;;;;;;;9.60;7.00;;;;;;;20.14;27.66;101503.05;105271;1288;81994;-91
2022/12/02 11:24:26;;;;;;;9.60;6.60;;;;;;;20.15;27.77;101501.73;105389;1279;69032;-92
2022/12/02 11:27:03;;;;;;;8.90;6.90;;;;;;;20.16;27.74;101503.54;105591;1292;69094;-90
2022/12/02 11:29:30;;;;;;;9.60;6.40;;;;;;;20.16;27.74;101502.58;105977;1291;69197;-91
2022/12/02 11:32:21;;;;;;;10.00;7.20;;;;;;;20.17;27.63;101499.58;105440;1286;69082;31
2022/12/02 11:34:59;;;;;;;;;;;;;;;20.17;27.65;101501.48;105260;1284;82141;31
2022/12/02 11:37:34;;;;;;;9.10;6.60;;;;;;;20.16;27.63;101499.14;105097;1293;72525;-92
2022/12/02 11:40:06;;;;;;;10.70;7.10;;;;;;;20.17;27.69;101494.17;105591;1283;68959;-91
2022/12/02 11:42:35;;;;;;;8.70;6.80;;;;;;;20.17;27.75;101496.17;105498;1292;69206;-92
2022/12/02 11:45:17;;;;;;;10.00;7.10;;;;;;;20.17;27.71;101494.80;105471;1288;73413;-92
2022/12/02 11:47:53;;;;;;;10.50;7.60;;;;;;;20.18;27.44;101494.30;105670;1291;83251;-92
2022/12/02 11:50:26;;;;;;;9.80;6.80;;;;;;;20.19;27.65;101494.40;105645;1285;71466;-89
2022/12/02 11:53:02;;;;;;;12.20;7.50;;;;;;;20.19;27.65;101497.34;105789;1292;69098;-89
2022/12/02 11:58:32;;;;;;;11.00;7.00;;;;;;;20.20;27.76;101496.20;105046;1293;73478;-92
2022/12/02 12:01:03;;;;;;;9.20;6.90;;;;;;;20.20;27.71;101498.12;105185;1287;82054;-92
2022/12/02 12:03:28;;;;;;;;;;;;;;;20.20;27.69;101494.96;105225;1291;72378;-92
2022/12/02 12:06:07;;;;;;;9.00;6.80;;;;;;;20.19;27.69;101495.28;105383;1290;67699;-91
2022/12/02 12:08:32;;;;;;;9.70;6.60;;;;;;;20.19;27.75;101492.54;105401;1291;68316;-90
2022/12/02 12:11:22;;;;;;;9.70;6.90;;;;;;;20.20;27.59;101491.31;105558;1282;69288;-90
2022/12/02 12:14:17;;;;;;;10.40;7.10;;;;;;;20.20;27.60;101491.11;105782;1291;82969;-89
2022/12/02 12:16:48;;;;;;;10.20;6.70;;;;;;;20.21;27.62;101488.73;105221;1287;73394;31
2022/12/02 12:19:14;;;;;;;11.30;7.10;;;;;;;20.22;27.74;101483.41;105395;1287;69013;-92
2022/12/02 12:24:36;;;;;;;9.20;6.70;;;;;;;20.23;27.68;101480.37;106147;1284;75410;-91
2022/12/02 12:27:02;;;;;;;8.40;6.80;;;;;;;20.23;27.61;101480.73;105503;1291;69195;-93
2022/12/02 12:29:37;;;;;;;8.80;6.60;;;;;;;20.24;27.71;101484.54;105459;1284;68259;-93
2022/12/02 12:32:03;;;;;;;8.90;6.40;;;;;;;20.26;27.50;101491.06;105171;1288;69042;-92
2022/12/02 12:34:29;;;;;;;10.40;7.50;;;;;;;20.25;27.66;101492.94;105107;1288;67742;-92
2022/12/02 12:36:54;;;;;;;9.70;6.90;;;;;;;20.26;27.69;101501.23;105090;1281;69151;-91